createdAt,value
2023-03-01T00:00:30.471Z,21.67
2023-03-01T00:02:04.012Z,22.73
2023-03-01T00:03:37.501Z,22.77
2023-03-01T00:05:11.457Z,22.63
2023-03-01T00:06:47.559Z,21.67
2023-03-01T00:08:21.324Z,21.92
2023-03-01T00:09:55.047Z,22.02
2023-03-01T00:11:28.740Z,21.23
2023-03-01T00:13:03.390Z,22.25
2023-03-01T00:14:37.591Z,23.25
2023-03-01T00:16:13.887Z,22.08
2023-03-01T00:17:47.444Z,21.58
2023-03-01T00:19:22.906Z,22.27
2023-03-01T00:20:56.786Z,22.45
2023-03-01T00:22:30.421Z,21.92
2023-03-01T00:24:05.358Z,22.00
2023-03-01T00:25:42.717Z,22.45
2023-03-01T00:27:16.182Z,22.75
2023-03-01T00:28:49.602Z,22.83
2023-03-01T00:30:23.167Z,22.17
2023-03-01T00:31:57.011Z,22.90
2023-03-01T00:33:30.140Z,22.30
2023-03-01T00:35:04.304Z,21.75
2023-03-01T00:36:39.712Z,22.20
2023-03-01T00:38:13.492Z,22.50
2023-03-01T00:39:48.738Z,21.80
2023-03-01T00:41:24.310Z,22.20
2023-03-01T00:42:58.174Z,22.10
2023-03-01T00:44:32.088Z,21.65
2023-03-01T00:46:04.779Z,22.17
2023-03-01T00:47:37.850Z,22.77
2023-03-01T00:49:10.834Z,20.88
2023-03-01T00:50:44.406Z,22.13
2023-03-01T00:52:18.442Z,22.00
2023-03-01T00:53:53.925Z,22.42
2023-03-01T00:55:28.512Z,20.63
2023-03-01T00:57:01.911Z,21.65
2023-03-01T00:58:35.238Z,21.83
2023-03-01T01:00:10.541Z,21.05
2023-03-01T01:01:44.389Z,23.15
2023-03-01T01:03:18.494Z,22.50
2023-03-01T01:04:52.815Z,22.02
2023-03-01T01:06:27.316Z,21.42
2023-03-01T01:07:59.956Z,22.88
2023-03-01T01:09:33.797Z,23.48
2023-03-01T01:11:08.001Z,22.83
2023-03-01T01:12:41.872Z,23.60
2023-03-01T01:14:15.782Z,22.77
2023-03-01T01:15:48.892Z,25.08
2023-03-01T01:17:21.492Z,24.85
2023-03-01T01:18:55.628Z,24.17
2023-03-01T01:20:28.798Z,23.15
2023-03-01T01:22:02.336Z,24.05
2023-03-01T01:23:35.970Z,24.50
2023-03-01T01:25:09.856Z,24.17
2023-03-01T01:26:45.243Z,23.90
2023-03-01T01:28:19.304Z,23.92
2023-03-01T01:29:53.329Z,24.23
2023-03-01T01:31:26.377Z,25.85
2023-03-01T01:33:00.423Z,24.48
2023-03-01T01:34:33.462Z,25.38
2023-03-01T01:36:06.585Z,23.42
2023-03-01T01:37:40.157Z,25.70
2023-03-01T01:39:14.110Z,24.83
2023-03-01T01:40:48.562Z,25.90
2023-03-01T01:42:22.983Z,26.05
2023-03-01T01:44:11.391Z,26.13
2023-03-01T01:45:43.862Z,25.25
2023-03-01T01:47:20.208Z,25.63
2023-03-01T01:48:56.662Z,26.38
2023-03-01T01:50:38.712Z,25.27
2023-03-01T01:52:13.957Z,24.35
2023-03-01T01:53:50.446Z,23.77
2023-03-01T01:55:26.820Z,25.02
2023-03-01T01:57:02.735Z,24.73
2023-03-01T01:58:38.854Z,25.63
2023-03-01T02:00:14.854Z,23.98
2023-03-01T02:01:47.491Z,24.52
2023-03-01T02:03:25.919Z,24.20
2023-03-01T02:05:04.725Z,23.73
2023-03-01T02:06:40.355Z,24.00
2023-03-01T02:08:14.633Z,23.30
2023-03-01T02:09:49.955Z,22.88
2023-03-01T02:11:24.431Z,22.63
2023-03-01T02:12:59.083Z,22.35
2023-03-01T02:14:34.753Z,22.65
2023-03-01T02:16:11.078Z,22.80
2023-03-01T02:17:44.615Z,22.73
2023-03-01T02:19:22.934Z,22.92
2023-03-01T02:21:04.378Z,22.17
2023-03-01T02:22:39.358Z,21.42
2023-03-01T02:24:15.911Z,22.73
2023-03-01T02:25:54.740Z,22.98
2023-03-01T02:27:30.034Z,21.33
2023-03-01T02:29:06.586Z,21.70
2023-03-01T02:30:59.233Z,20.98
2023-03-01T02:32:32.842Z,20.63
2023-03-01T02:34:06.607Z,20.92
2023-03-01T02:35:40.813Z,22.33
2023-03-01T02:37:21.453Z,22.63
2023-03-01T02:38:56.431Z,22.10
2023-03-01T02:40:31.234Z,22.33
2023-03-01T02:42:05.461Z,21.08
2023-03-01T02:43:38.063Z,21.75
2023-03-01T02:45:13.462Z,22.40
2023-03-01T02:46:47.592Z,22.23
2023-03-01T02:48:21.377Z,24.27
2023-03-01T02:49:55.688Z,23.95
2023-03-01T02:51:34.012Z,22.65
2023-03-01T02:53:11.417Z,21.77
2023-03-01T02:54:47.823Z,22.30
2023-03-01T02:56:21.429Z,22.05
2023-03-01T02:57:55.023Z,21.55
2023-03-01T02:59:30.915Z,22.95
2023-03-01T03:01:05.921Z,23.05
2023-03-01T03:02:39.894Z,22.67
2023-03-01T03:04:22.965Z,22.75
2023-03-01T03:05:57.552Z,23.85
2023-03-01T03:07:30.079Z,23.42
2023-03-01T03:09:03.786Z,22.33
2023-03-01T03:10:38.453Z,22.98
2023-03-01T03:12:12.042Z,23.45
2023-03-01T03:13:49.027Z,23.75
2023-03-01T03:15:23.561Z,22.48
2023-03-01T03:16:57.514Z,24.27
2023-03-01T03:18:30.863Z,22.15
2023-03-01T03:20:05.374Z,23.35
2023-03-01T03:21:38.935Z,23.17
2023-03-01T03:23:12.386Z,23.58
2023-03-01T03:24:45.772Z,22.13
2023-03-01T03:26:18.171Z,21.75
2023-03-01T03:27:57.734Z,21.75
2023-03-01T03:29:30.221Z,23.73
2023-03-01T03:31:04.649Z,25.27
2023-03-01T03:32:38.500Z,23.30
2023-03-01T03:34:18.842Z,23.20
2023-03-01T03:35:52.783Z,22.98
2023-03-01T03:37:43.936Z,23.08
2023-03-01T03:39:19.226Z,24.60
2023-03-01T03:40:53.821Z,23.95
2023-03-01T03:42:27.237Z,24.35
2023-03-01T03:44:00.640Z,24.30
2023-03-01T03:45:34.479Z,24.05
2023-03-01T03:47:08.015Z,23.67
2023-03-01T03:48:43.498Z,22.92
2023-03-01T03:50:17.131Z,23.95
2023-03-01T03:51:50.546Z,23.60
2023-03-01T03:53:23.440Z,24.92
2023-03-01T03:54:56.787Z,24.17
2023-03-01T03:56:30.650Z,24.40
2023-03-01T03:58:07.913Z,23.33
2023-03-01T03:59:41.526Z,23.63
2023-03-01T04:01:14.976Z,22.95
2023-03-01T04:02:48.198Z,23.05
2023-03-01T04:04:23.045Z,22.55
2023-03-01T04:05:56.607Z,24.05
2023-03-01T04:07:29.010Z,23.17
2023-03-01T04:09:03.989Z,23.50
2023-03-01T04:10:37.459Z,25.35
2023-03-01T04:12:10.978Z,25.77
2023-03-01T04:13:44.317Z,24.80
2023-03-01T04:15:17.030Z,24.95
2023-03-01T04:16:50.404Z,23.40
2023-03-01T04:18:23.802Z,23.23
2023-03-01T04:19:59.857Z,22.33
2023-03-01T04:21:33.395Z,21.67
2023-03-01T04:23:11.615Z,22.27
2023-03-01T04:24:45.490Z,22.20
2023-03-01T04:26:19.425Z,22.88
2023-03-01T04:27:52.714Z,20.92
2023-03-01T04:29:26.822Z,21.58
2023-03-01T04:31:01.907Z,21.98
2023-03-01T04:32:36.315Z,21.35
2023-03-01T04:34:10.022Z,20.00
2023-03-01T04:35:45.019Z,20.88
2023-03-01T04:37:18.423Z,20.50
2023-03-01T04:38:52.922Z,21.65
2023-03-01T04:40:27.680Z,22.83
2023-03-01T04:42:02.076Z,22.73
2023-03-01T04:43:36.191Z,22.92
2023-03-01T04:45:14.096Z,21.73
2023-03-01T04:46:48.421Z,21.58
2023-03-01T04:48:21.205Z,21.48
2023-03-01T04:49:54.660Z,21.10
2023-03-01T04:51:29.982Z,21.48
2023-03-01T04:53:03.539Z,22.42
2023-03-01T04:54:37.824Z,22.25
2023-03-01T04:56:11.362Z,21.33
2023-03-01T04:57:44.723Z,21.05
2023-03-01T04:59:18.283Z,22.25
2023-03-01T05:00:51.637Z,22.38
2023-03-01T05:02:24.440Z,23.15
2023-03-01T05:04:03.864Z,22.83
2023-03-01T05:05:37.395Z,22.90
2023-03-01T05:07:13.988Z,24.05
2023-03-01T05:08:47.383Z,23.27
2023-03-01T05:10:19.718Z,23.17
2023-03-01T05:11:53.202Z,23.08
2023-03-01T05:13:27.160Z,23.38
2023-03-01T05:15:00.547Z,23.30
2023-03-01T05:16:36.065Z,21.48
2023-03-01T05:18:12.314Z,21.13
2023-03-01T05:19:47.133Z,22.08
2023-03-01T05:21:21.622Z,21.55
2023-03-01T05:22:57.871Z,22.40
2023-03-01T05:24:32.391Z,19.65
2023-03-01T05:26:09.491Z,21.00
2023-03-01T05:27:45.505Z,21.80
2023-03-01T05:29:18.460Z,21.45
2023-03-01T05:30:52.717Z,21.92
2023-03-01T05:32:27.090Z,21.48
2023-03-01T05:34:01.046Z,22.05
2023-03-01T05:35:35.226Z,21.25
2023-03-01T05:37:09.400Z,21.95
2023-03-01T05:38:45.138Z,20.73
2023-03-01T05:40:20.353Z,21.23
2023-03-01T05:41:56.112Z,22.20
2023-03-01T05:43:34.832Z,20.90
2023-03-01T05:45:10.567Z,20.75
2023-03-01T05:46:45.783Z,21.50
2023-03-01T05:48:20.521Z,22.20
2023-03-01T05:49:54.581Z,20.98
2023-03-01T05:51:27.935Z,23.00
2023-03-01T05:53:02.327Z,21.55
2023-03-01T05:54:37.825Z,22.52
2023-03-01T05:56:11.801Z,22.77
2023-03-01T05:57:44.182Z,23.90
2023-03-01T05:59:18.204Z,23.40
2023-03-01T06:00:54.094Z,24.52
2023-03-01T06:02:30.248Z,23.48
2023-03-01T06:04:04.397Z,23.13
2023-03-01T06:05:38.335Z,23.38
2023-03-01T06:07:12.117Z,23.45
2023-03-01T06:08:45.762Z,24.80
2023-03-01T06:10:21.655Z,24.35
2023-03-01T06:11:55.298Z,23.35
2023-03-01T06:13:28.860Z,23.45
2023-03-01T06:15:02.470Z,23.10
2023-03-01T06:16:35.521Z,22.63
2023-03-01T06:18:08.688Z,23.08
2023-03-01T06:19:41.793Z,22.42
2023-03-01T06:21:14.944Z,21.13
2023-03-01T06:22:50.065Z,23.02
2023-03-01T06:24:24.016Z,24.85
2023-03-01T06:25:58.824Z,22.42
2023-03-01T06:27:32.074Z,22.80
2023-03-01T06:29:05.126Z,20.73
2023-03-01T06:30:38.447Z,19.30
2023-03-01T06:32:11.607Z,18.35
2023-03-01T06:33:45.690Z,17.75
2023-03-01T06:35:20.423Z,18.50
2023-03-01T06:36:53.609Z,18.25
2023-03-01T06:38:26.744Z,17.42
2023-03-01T06:39:59.898Z,17.85
2023-03-01T06:41:34.735Z,18.48
2023-03-01T06:43:08.489Z,17.98
2023-03-01T06:44:41.571Z,19.30
2023-03-01T06:46:14.784Z,17.33
2023-03-01T06:47:48.625Z,17.98
2023-03-01T06:49:22.041Z,17.15
2023-03-01T06:50:55.379Z,17.05
2023-03-01T06:52:28.485Z,17.20
2023-03-01T06:54:01.861Z,16.77
2023-03-01T06:55:35.268Z,17.13
2023-03-01T06:57:09.758Z,16.92
2023-03-01T06:58:42.848Z,18.42
2023-03-01T07:00:17.124Z,17.40
2023-03-01T07:01:51.254Z,17.60
2023-03-01T07:03:24.954Z,17.33
2023-03-01T07:04:58.130Z,17.10
2023-03-01T07:06:31.581Z,18.05
2023-03-01T07:08:05.002Z,17.70
2023-03-01T07:09:38.047Z,16.38
2023-03-01T07:11:11.177Z,17.65
2023-03-01T07:12:47.376Z,19.05
2023-03-01T07:14:21.220Z,19.73
2023-03-01T07:15:54.540Z,19.10
2023-03-01T07:17:27.724Z,20.98
2023-03-01T07:19:00.976Z,21.02
2023-03-01T07:20:34.016Z,20.25
2023-03-01T07:22:08.775Z,19.60
2023-03-01T07:23:42.118Z,19.98
2023-03-01T07:25:15.221Z,20.57
2023-03-01T07:26:50.878Z,19.70
2023-03-01T07:28:26.487Z,19.03
2023-03-01T07:29:59.533Z,20.52
2023-03-01T07:31:32.904Z,20.20
2023-03-01T07:33:06.204Z,19.30
2023-03-01T07:34:39.441Z,20.10
2023-03-01T07:36:12.628Z,19.48
2023-03-01T07:37:46.055Z,18.83
2023-03-01T07:39:19.814Z,18.58
2023-03-01T07:40:53.148Z,19.70
2023-03-01T07:42:26.665Z,20.63
2023-03-01T07:44:01.243Z,19.67
2023-03-01T07:45:34.584Z,20.73
2023-03-01T07:47:07.843Z,19.52
2023-03-01T07:48:41.015Z,19.38
2023-03-01T07:50:14.481Z,19.33
2023-03-01T07:51:48.164Z,20.23
2023-03-01T07:53:21.241Z,19.37
2023-03-01T07:54:54.356Z,18.95
2023-03-01T07:56:27.370Z,19.10
2023-03-01T07:58:00.795Z,20.10
2023-03-01T07:59:35.217Z,20.03
2023-03-01T08:01:09.950Z,20.00
2023-03-01T08:02:43.120Z,20.48
2023-03-01T08:04:16.412Z,20.73
2023-03-01T08:05:49.534Z,21.30
2023-03-01T08:07:22.568Z,20.50
2023-03-01T08:08:56.424Z,21.13
2023-03-01T08:10:29.646Z,21.17
2023-03-01T08:12:02.852Z,21.33
2023-03-01T08:13:36.363Z,21.03
2023-03-01T08:15:12.374Z,21.17
2023-03-01T08:16:46.168Z,20.50
2023-03-01T08:18:20.568Z,21.27
2023-03-01T08:19:53.726Z,21.47
2023-03-01T08:21:26.927Z,21.23
2023-03-01T08:23:00.396Z,20.23
2023-03-01T08:24:33.538Z,21.73
2023-03-01T08:26:08.874Z,21.30
2023-03-01T08:27:41.909Z,23.00
2023-03-01T08:29:15.752Z,70.97
2023-03-01T08:30:50.986Z,23.47
2023-03-01T08:32:25.064Z,23.23
2023-03-01T08:33:59.396Z,22.20
2023-03-01T08:35:33.154Z,20.93
2023-03-01T08:37:07.015Z,23.10
2023-03-01T08:38:41.530Z,22.40
2023-03-01T08:40:15.578Z,51.47
2023-03-01T08:41:49.481Z,22.90
2023-03-01T08:43:26.476Z,21.50
2023-03-01T08:44:59.643Z,23.67
2023-03-01T08:46:35.458Z,21.93
2023-03-01T08:48:09.205Z,26.87
2023-03-01T08:49:43.033Z,23.50
2023-03-01T08:51:18.099Z,22.33
2023-03-01T08:52:51.613Z,21.23
2023-03-01T08:54:25.581Z,20.83
2023-03-01T08:56:03.557Z,21.20
2023-03-01T08:57:37.418Z,20.83
2023-03-01T08:59:12.206Z,21.53
2023-03-01T09:00:46.012Z,21.13
2023-03-01T09:02:21.754Z,21.27
2023-03-01T09:03:55.685Z,21.30
2023-03-01T09:05:29.504Z,20.57
2023-03-01T09:07:03.296Z,21.10
2023-03-01T09:08:38.146Z,21.43
2023-03-01T09:10:12.789Z,20.63
2023-03-01T09:11:51.144Z,20.50
2023-03-01T09:13:25.822Z,20.97
2023-03-01T09:14:59.235Z,21.90
2023-03-01T09:16:36.796Z,22.20
2023-03-01T09:18:11.803Z,22.03
2023-03-01T09:19:45.196Z,21.93
2023-03-01T09:21:24.848Z,23.93
2023-03-01T09:23:04.126Z,21.43
2023-03-01T09:24:37.529Z,21.90
2023-03-01T09:26:11.495Z,21.47
2023-03-01T09:27:44.912Z,21.83
2023-03-01T09:29:18.360Z,20.80
2023-03-01T09:30:51.740Z,21.73
2023-03-01T09:32:25.230Z,21.53
2023-03-01T09:34:01.773Z,22.10
2023-03-01T09:35:35.860Z,22.20
2023-03-01T09:37:09.411Z,20.10
2023-03-01T09:38:42.605Z,21.23
2023-03-01T09:40:19.415Z,21.17
2023-03-01T09:42:00.700Z,22.20
2023-03-01T09:45:26.332Z,21.50
2023-03-01T09:47:00.124Z,21.40
2023-03-01T09:48:43.567Z,22.67
2023-03-01T09:50:20.717Z,20.93
2023-03-01T09:52:01.413Z,21.80
2023-03-01T09:53:36.168Z,21.77
2023-03-01T09:55:12.509Z,20.97
2023-03-01T09:56:49.331Z,20.43
2023-03-01T09:58:43.529Z,23.20
2023-03-01T10:00:26.063Z,21.83
2023-03-01T10:02:03.849Z,21.03
2023-03-01T10:03:44.020Z,20.50
2023-03-01T10:05:33.539Z,21.53
2023-03-01T10:07:23.731Z,21.77
2023-03-01T10:09:00.025Z,21.30
2023-03-01T10:10:36.360Z,21.80
2023-03-01T10:12:13.474Z,21.40
2023-03-01T10:13:50.124Z,20.70
2023-03-01T10:15:32.337Z,21.47
2023-03-01T10:17:07.943Z,22.20
2023-03-01T10:18:42.632Z,21.03
2023-03-01T10:20:21.053Z,21.73
2023-03-01T10:21:55.897Z,21.57
2023-03-01T10:23:30.143Z,21.63
2023-03-01T10:25:06.230Z,20.87
2023-03-01T10:26:48.274Z,21.10
2023-03-01T10:28:27.784Z,22.13
2023-03-01T10:30:05.546Z,21.23
2023-03-01T10:31:44.110Z,21.20
2023-03-01T10:33:21.048Z,22.00
2023-03-01T10:34:55.512Z,21.57
2023-03-01T10:36:30.128Z,22.07
2023-03-01T10:38:10.370Z,21.07
2023-03-01T10:39:58.140Z,21.63
2023-03-01T10:41:32.994Z,21.70
2023-03-01T10:43:08.444Z,21.83
2023-03-01T10:44:47.159Z,21.90
2023-03-01T10:46:28.899Z,21.00
2023-03-01T10:48:07.446Z,21.67
2023-03-01T10:49:41.576Z,21.43
2023-03-01T10:51:18.148Z,22.57
2023-03-01T10:53:00.801Z,21.23
2023-03-01T10:54:35.486Z,22.37
2023-03-01T10:56:10.579Z,22.70
2023-03-01T10:57:44.147Z,23.57
2023-03-01T10:59:27.229Z,22.67
2023-03-01T11:01:02.328Z,22.07
2023-03-01T11:02:37.630Z,22.33
2023-03-01T11:04:15.935Z,22.37
2023-03-01T11:06:02.165Z,23.07
2023-03-01T11:07:49.733Z,23.83
2023-03-01T11:09:25.028Z,21.97
2023-03-01T11:11:08.019Z,21.93
2023-03-01T11:12:41.406Z,22.77
2023-03-01T11:14:26.754Z,22.00
2023-03-01T11:16:01.978Z,22.00
2023-03-01T11:17:53.613Z,21.30
2023-03-01T11:19:28.815Z,22.00
2023-03-01T11:21:04.110Z,21.10
2023-03-01T11:22:38.125Z,21.30
2023-03-01T11:24:14.838Z,20.40
2023-03-01T11:26:01.609Z,20.53
2023-03-01T11:27:40.563Z,20.50
2023-03-01T11:29:20.961Z,21.70
2023-03-01T11:31:07.577Z,21.40
2023-03-01T11:32:45.294Z,20.40
2023-03-01T11:34:22.989Z,20.93
2023-03-01T11:36:02.283Z,20.50
2023-03-01T11:37:40.154Z,17.90
2023-03-01T11:39:23.741Z,16.97
2023-03-01T11:41:02.040Z,17.30
2023-03-01T11:42:48.393Z,18.17
2023-03-01T11:44:27.633Z,16.47
2023-03-01T11:46:40.059Z,17.37
2023-03-01T11:48:48.475Z,16.07
2023-03-01T11:50:30.777Z,16.53
2023-03-01T11:52:13.557Z,16.50
2023-03-01T11:53:58.024Z,16.87
2023-03-01T11:55:54.412Z,15.27
2023-03-01T11:57:46.620Z,16.60
2023-03-01T11:59:47.283Z,16.73
2023-03-01T12:01:33.148Z,16.00
2023-03-01T12:03:25.596Z,16.00
2023-03-01T12:05:26.604Z,17.33
2023-03-01T12:07:02.103Z,17.87
2023-03-01T12:08:41.020Z,17.10
2023-03-01T12:10:28.867Z,17.80
2023-03-01T12:12:19.687Z,16.73
2023-03-01T12:14:29.012Z,17.27
2023-03-01T12:16:25.908Z,17.03
2023-03-01T12:18:23.504Z,16.30
2023-03-01T12:20:12.086Z,16.23
2023-03-01T12:21:59.540Z,16.33
2023-03-01T12:23:48.933Z,15.23
2023-03-01T12:25:29.881Z,16.43
2023-03-01T12:27:19.874Z,16.13
2023-03-01T12:29:11.281Z,15.83
2023-03-01T12:31:21.408Z,16.13
2023-03-01T12:32:59.561Z,16.87
2023-03-01T12:35:08.323Z,17.37
2023-03-01T12:37:00.406Z,18.70
2023-03-01T12:38:39.601Z,19.13
2023-03-01T12:40:35.323Z,19.77
2023-03-01T12:42:18.554Z,20.13
2023-03-01T12:44:08.505Z,19.53
2023-03-01T12:45:50.877Z,20.83
2023-03-01T12:47:38.432Z,20.07
2023-03-01T12:49:15.518Z,21.53
2023-03-01T12:50:51.107Z,20.80
2023-03-01T12:52:37.845Z,20.90
2023-03-01T12:54:17.799Z,20.43
2023-03-01T12:55:52.514Z,20.50
2023-03-01T12:57:37.838Z,20.23
2023-03-01T12:59:19.905Z,20.40
2023-03-01T13:01:04.183Z,20.77
2023-03-01T13:02:43.636Z,19.47
2023-03-01T13:04:38.578Z,19.93
2023-03-01T13:06:18.772Z,19.47
2023-03-01T13:07:59.714Z,18.83
2023-03-01T13:09:41.133Z,18.37
2023-03-01T13:11:20.085Z,18.90
2023-03-01T13:13:05.455Z,18.97
2023-03-01T13:14:48.255Z,20.37
2023-03-01T13:16:43.834Z,19.53
2023-03-01T13:18:35.629Z,19.97
2023-03-01T13:20:16.503Z,20.10
2023-03-01T13:21:51.671Z,18.70
2023-03-01T13:23:29.990Z,19.30
2023-03-01T13:25:16.826Z,20.53
2023-03-01T13:27:23.703Z,19.17
2023-03-01T13:29:01.048Z,20.43
2023-03-01T13:30:45.032Z,21.30
2023-03-01T13:32:37.989Z,22.47
2023-03-01T13:34:52.940Z,20.27
2023-03-01T13:36:48.517Z,18.90
2023-03-01T13:38:47.814Z,20.40
2023-03-01T13:41:01.245Z,18.80
2023-03-01T13:42:41.663Z,18.90
2023-03-01T13:44:22.562Z,20.03
2023-03-01T13:45:57.293Z,20.03
2023-03-01T13:47:30.609Z,20.13
2023-03-01T13:49:03.793Z,20.07
2023-03-01T13:50:46.301Z,18.60
2023-03-01T13:52:40.790Z,18.90
2023-03-01T13:54:16.266Z,17.13
2023-03-01T13:55:50.807Z,17.20
2023-03-01T13:57:28.232Z,16.77
2023-03-01T13:59:06.337Z,17.97
2023-03-01T14:00:41.597Z,15.53
2023-03-01T14:02:17.507Z,16.93
2023-03-01T14:03:50.700Z,18.07
2023-03-01T14:05:23.960Z,17.83
2023-03-01T14:07:12.086Z,18.20
2023-03-01T14:08:46.519Z,18.47
2023-03-01T14:10:19.735Z,18.80
2023-03-01T14:12:06.288Z,18.30
2023-03-01T14:13:53.933Z,19.33
2023-03-01T14:15:33.915Z,18.20
2023-03-01T14:17:24.158Z,18.07
2023-03-01T14:19:09.472Z,17.10
2023-03-01T14:20:44.543Z,16.70
2023-03-01T14:22:22.251Z,17.73
2023-03-01T14:23:55.499Z,18.47
2023-03-01T14:25:31.896Z,17.60
2023-03-01T14:27:06.552Z,18.73
2023-03-01T14:28:40.158Z,19.40
2023-03-01T14:30:19.752Z,17.33
2023-03-01T14:31:53.877Z,17.20
2023-03-01T14:33:30.785Z,17.70
2023-03-01T14:35:04.810Z,16.53
2023-03-01T14:36:37.884Z,16.47
2023-03-01T14:38:23.222Z,16.03
2023-03-01T14:39:58.329Z,16.97
2023-03-01T14:41:31.505Z,17.47
2023-03-01T14:43:12.710Z,16.93
2023-03-01T14:44:49.210Z,17.93
2023-03-01T14:46:24.323Z,18.27
2023-03-01T14:48:00.380Z,18.17
2023-03-01T14:49:37.962Z,18.07
2023-03-01T14:51:14.242Z,17.83
2023-03-01T14:52:50.436Z,17.83
2023-03-01T14:54:27.467Z,17.77
2023-03-01T14:56:04.246Z,17.47
2023-03-01T14:57:37.429Z,16.77
2023-03-01T14:59:11.618Z,17.10
2023-03-01T15:00:50.428Z,16.83
2023-03-01T15:02:27.356Z,18.40
2023-03-01T15:04:02.336Z,17.93
2023-03-01T15:05:37.527Z,16.77
2023-03-01T15:07:15.417Z,17.77
2023-03-01T15:08:50.606Z,17.33
2023-03-01T15:10:25.923Z,16.33
2023-03-01T15:11:58.951Z,17.90
2023-03-01T15:13:34.395Z,17.33
2023-03-01T15:15:40.361Z,17.17
2023-03-01T15:17:28.501Z,17.77
2023-03-01T15:19:03.806Z,16.57
2023-03-01T15:20:38.384Z,17.17
2023-03-01T15:22:17.446Z,17.57
2023-03-01T15:23:54.341Z,18.37
2023-03-01T15:25:29.622Z,17.10
2023-03-01T15:27:07.867Z,17.20
2023-03-01T15:28:50.871Z,16.83
2023-03-01T15:30:26.785Z,17.20
2023-03-01T15:32:01.990Z,17.67
2023-03-01T15:33:37.775Z,18.30
2023-03-01T15:35:37.792Z,17.53
2023-03-01T15:37:42.337Z,17.90
2023-03-01T15:39:40.424Z,16.93
2023-03-01T15:41:26.510Z,20.20
2023-03-01T15:43:00.497Z,17.10
2023-03-01T15:44:43.279Z,17.93
2023-03-01T15:46:24.567Z,18.03
2023-03-01T15:48:02.449Z,18.03
2023-03-01T15:49:54.000Z,18.00
2023-03-01T15:51:34.210Z,17.87
2023-03-01T15:53:12.879Z,17.43
2023-03-01T15:54:46.920Z,17.33
2023-03-01T15:56:20.042Z,17.83
2023-03-01T15:58:01.500Z,18.20
2023-03-01T15:59:34.744Z,17.60
2023-03-01T16:01:14.505Z,18.47
2023-03-01T16:02:47.831Z,17.70
2023-03-01T16:04:24.830Z,17.40
2023-03-01T16:05:58.241Z,18.60
2023-03-01T16:07:32.109Z,18.23
2023-03-01T16:09:06.704Z,18.27
2023-03-01T16:10:40.396Z,17.57
2023-03-01T16:12:16.939Z,17.70
2023-03-01T16:13:50.830Z,18.60
2023-03-01T16:15:27.309Z,18.60
2023-03-01T16:17:00.412Z,17.93
2023-03-01T16:18:33.492Z,18.77
2023-03-01T16:20:08.749Z,37.80
2023-03-01T16:21:43.121Z,19.43
2023-03-01T16:23:17.283Z,18.50
2023-03-01T16:24:51.743Z,18.37
2023-03-01T16:26:24.838Z,17.57
2023-03-01T16:27:59.478Z,18.20
2023-03-01T16:29:32.592Z,18.60
2023-03-01T16:31:06.666Z,17.57
2023-03-01T16:32:41.044Z,17.50
2023-03-01T16:34:14.172Z,17.07
2023-03-01T16:35:47.294Z,17.67
2023-03-01T16:37:20.393Z,18.10
2023-03-01T16:38:53.857Z,17.27
2023-03-01T16:40:31.101Z,17.90
2023-03-01T16:42:04.292Z,17.60
2023-03-01T16:43:37.369Z,16.70
2023-03-01T16:45:22.728Z,16.37
2023-03-01T16:46:57.271Z,18.37
2023-03-01T16:48:30.317Z,16.60
2023-03-01T16:50:03.694Z,18.77
2023-03-01T16:51:37.294Z,19.03
2023-03-01T16:53:10.675Z,17.37
2023-03-01T16:54:43.730Z,17.70
2023-03-01T16:56:19.635Z,17.90
2023-03-01T16:57:53.075Z,17.60
2023-03-01T16:59:26.152Z,17.53
2023-03-01T17:01:05.446Z,17.73
2023-03-01T17:02:39.137Z,19.00
2023-03-01T17:04:13.417Z,17.87
2023-03-01T17:05:46.481Z,17.30
2023-03-01T17:07:19.547Z,17.27
2023-03-01T17:08:52.583Z,17.30
2023-03-01T17:10:25.872Z,19.20
2023-03-01T17:12:00.299Z,17.97
2023-03-01T17:13:33.369Z,17.83
2023-03-01T17:15:07.912Z,19.63
2023-03-01T17:16:41.057Z,18.57
2023-03-01T17:18:13.227Z,19.43
2023-03-01T17:19:46.248Z,17.37
2023-03-01T17:21:19.550Z,17.95
2023-03-01T17:22:53.177Z,22.33
2023-03-01T17:24:26.218Z,22.27
2023-03-01T17:26:00.100Z,19.47
2023-03-01T17:27:35.703Z,19.67
2023-03-01T17:29:08.845Z,18.80
2023-03-01T17:30:44.976Z,18.13
2023-03-01T17:32:18.085Z,18.23
2023-03-01T17:33:52.212Z,18.70
2023-03-01T17:35:25.344Z,18.70
2023-03-01T17:36:58.378Z,18.58
2023-03-01T17:38:31.429Z,19.00
2023-03-01T17:40:04.932Z,19.45
2023-03-01T17:41:38.051Z,19.00
2023-03-01T17:43:12.493Z,18.85
2023-03-01T17:44:45.591Z,19.10
2023-03-01T17:46:19.196Z,20.48
2023-03-01T17:47:52.279Z,20.30
2023-03-01T17:49:25.326Z,20.13
2023-03-01T17:50:58.786Z,20.05
2023-03-01T17:52:31.924Z,19.67
2023-03-01T17:54:05.326Z,21.33
2023-03-01T17:55:38.787Z,21.65
2023-03-01T17:57:11.844Z,20.60
2023-03-01T17:58:46.789Z,21.90
2023-03-01T18:00:20.565Z,22.52
2023-03-01T18:01:53.795Z,22.15
2023-03-01T18:03:26.856Z,21.38
2023-03-01T18:05:00.685Z,22.80
2023-03-01T18:06:34.286Z,22.50
2023-03-01T18:08:07.598Z,23.05
2023-03-01T18:09:40.749Z,23.40
2023-03-01T18:11:14.456Z,22.45
2023-03-01T18:12:47.817Z,21.92
2023-03-01T18:14:22.243Z,22.58
2023-03-01T18:16:00.779Z,21.02
2023-03-01T18:17:34.170Z,21.75
2023-03-01T18:19:07.571Z,23.42
2023-03-01T18:20:41.024Z,23.83
2023-03-01T18:22:15.086Z,24.85
2023-03-01T18:23:48.362Z,23.88
2023-03-01T18:25:22.259Z,25.70
2023-03-01T18:26:55.370Z,24.73
2023-03-01T18:28:28.492Z,25.38
2023-03-01T18:30:03.052Z,27.10
2023-03-01T18:31:36.887Z,24.80
2023-03-01T18:33:10.226Z,24.85
2023-03-01T18:34:43.383Z,24.55
2023-03-01T18:36:21.674Z,24.30
2023-03-01T18:37:54.861Z,26.02
2023-03-01T18:39:28.007Z,24.45
2023-03-01T18:41:01.065Z,24.25
2023-03-01T18:42:34.126Z,25.08
2023-03-01T18:44:08.283Z,24.55
2023-03-01T18:45:45.152Z,24.13
2023-03-01T18:47:18.931Z,24.50
2023-03-01T18:48:53.344Z,25.55
2023-03-01T18:50:26.588Z,24.80
2023-03-01T18:51:59.619Z,24.08
2023-03-01T18:53:32.652Z,24.60
2023-03-01T18:55:06.664Z,24.50
2023-03-01T18:56:39.968Z,24.48
2023-03-01T18:58:13.343Z,25.33
2023-03-01T18:59:46.491Z,23.17
2023-03-01T19:01:22.721Z,25.73
2023-03-01T19:02:56.030Z,26.73
2023-03-01T19:04:29.244Z,27.65
2023-03-01T19:06:02.469Z,29.35
2023-03-01T19:07:35.549Z,28.08
2023-03-01T19:09:09.429Z,27.13
2023-03-01T19:10:42.479Z,27.25
2023-03-01T19:12:15.489Z,26.45
2023-03-01T19:13:51.812Z,28.05
2023-03-01T19:15:24.976Z,27.08
2023-03-01T19:16:59.445Z,26.20
2023-03-01T19:18:32.504Z,26.23
2023-03-01T19:20:06.555Z,26.65
2023-03-01T19:21:39.617Z,26.55
2023-03-01T19:23:13.499Z,26.50
2023-03-01T19:24:46.731Z,26.02
2023-03-01T19:26:21.495Z,25.95
2023-03-01T19:27:54.583Z,26.50
2023-03-01T19:29:27.811Z,25.92
2023-03-01T19:31:02.331Z,27.77
2023-03-01T19:32:36.898Z,28.27
2023-03-01T19:34:11.934Z,29.17
2023-03-01T19:35:45.301Z,29.02
2023-03-01T19:37:18.495Z,29.75
2023-03-01T19:38:51.545Z,27.60
2023-03-01T19:40:24.632Z,28.58
2023-03-01T19:41:57.695Z,30.30
2023-03-01T19:43:30.770Z,29.33
2023-03-01T19:45:03.876Z,30.95
2023-03-01T19:46:37.329Z,30.60
2023-03-01T19:48:11.760Z,32.70
2023-03-01T19:49:44.874Z,33.15
2023-03-01T19:51:17.957Z,33.75
2023-03-01T19:52:51.097Z,35.72
2023-03-01T19:54:24.199Z,33.70
2023-03-01T19:56:02.061Z,36.10
2023-03-01T19:57:35.143Z,36.00
2023-03-01T19:59:08.523Z,34.67
2023-03-01T20:00:45.909Z,34.75
2023-03-01T20:02:18.974Z,34.70
2023-03-01T20:03:53.413Z,34.85
2023-03-01T20:05:26.538Z,35.45
2023-03-01T20:06:59.605Z,34.83
2023-03-01T20:08:32.944Z,33.83
2023-03-01T20:10:07.046Z,33.65
2023-03-01T20:11:42.181Z,36.58
2023-03-01T20:13:15.497Z,34.05
2023-03-01T20:14:50.140Z,32.22
2023-03-01T20:16:24.372Z,33.38
2023-03-01T20:17:57.868Z,32.28
2023-03-01T20:19:32.342Z,34.30
2023-03-01T20:21:14.631Z,34.53
2023-03-01T20:22:54.716Z,33.97
2023-03-01T20:24:27.885Z,33.22
2023-03-01T20:26:05.195Z,34.03
2023-03-01T20:27:38.450Z,34.78
2023-03-01T20:29:11.899Z,36.05
2023-03-01T20:30:45.755Z,36.83
2023-03-01T20:32:18.914Z,35.95
2023-03-01T20:33:51.981Z,35.92
2023-03-01T20:35:26.369Z,35.72
2023-03-01T20:36:59.470Z,35.53
2023-03-01T20:38:32.719Z,34.65
2023-03-01T20:40:07.221Z,35.38
2023-03-01T20:41:40.753Z,35.30
2023-03-01T20:43:13.974Z,35.25
2023-03-01T20:44:47.295Z,36.08